Rollins, Indiana
Current Conditions -  °F | °C
As of 12:55 AM on Friday 28 Nov 2014 (Local Time) from KDCY Reporting Station
Clear Clear  
Wind Chill: 20°   Ceiling: Unl
Heat Index: 20°   Visibility: 10mi
Dew Point: 19°   Wind: 0mph
Humidity: 95%   Direction: NA
Pressure: 30.44"   Gusts: NA
Location:  38.6262°N, 86.7615°W
Report Text: KDCY 280655Z AUTO 00000KT 10SM CLR M07/M07 A3044 RMK AO2 T10661073
Loading
Personal Weather Stations






























Interactive Weather Map New forecast layout! Learn more

10-Day Weather Forecast

Advertisements
Track Severe Weather on mobile